Orenge 7 — JL6148 — position and weather

sailwx.info

Track history (hours):
 
Tides and Currents Weather Stations Pressure Air Temp Water Temp Dewpoint Dewpoint Depression Visibility Wind Speed Wind Dir Waves Ship Positions

Orenge 7

Last reported at 2016-Jan-31 14:34 UTC. Time now 2016-Feb-06 00:16 UTC.
Position N 34°37' E 134°56'.

Length 163 m; draft 4.9 m.

Type: Passenger vessel. MMSI: 431500186.

Date/timePositionNaut miles runAvg speedWind from/ knotsBaromVisibWave heightAir tempDewpointWater temp
2016-Jan-31 14:34N 34°37' E 134°56'1818.2
2016-Jan-31 13:33N 34°36' E 135°19'6 5.1
2016-Jan-31 12:22N 34°37' E 135°26'0 0.0
2016-Jan-31 11:28N 34°37' E 135°26'0 0.0
2016-Jan-31 10:28N 34°37' E 135°26'0 0.0
2016-Jan-31 09:28N 34°37' E 135°26'0 0.0
2016-Jan-31 08:28N 34°37' E 135°26'0 0.0
2016-Jan-31 07:28N 34°37' E 135°26'0 0.0
2016-Jan-31 06:28N 34°37' E 135°26'0 0.0
2016-Jan-31 05:28N 34°37' E 135°26'0 0.0
2016-Jan-31 04:28N 34°37' E 135°26'0 0.0
2016-Jan-31 03:28N 34°37' E 135°26'0 0.0
2016-Jan-31 02:28N 34°37' E 135°26'0 0.0
2016-Jan-31 01:28N 34°37' E 135°26'0 0.0
2016-Jan-31 00:28N 34°37' E 135°26'0 0.0
2016-Jan-30 23:20N 34°37' E 135°26'0 0.0
2016-Jan-30 22:26N 34°37' E 135°26'0 0.0
2016-Jan-30 21:32N 34°37' E 135°26'5 5.4
2016-Jan-30 20:33N 34°36' E 135°20'1918.6
2016-Jan-30 19:33N 34°36' E 134°57'2 0.1
2016-Jan-29 14:33N 34°36' E 134°55'1919.1
2016-Jan-29 13:34N 34°37' E 135°18'6 5.3
2016-Jan-29 12:20N 34°37' E 135°26'0 0.0
2016-Jan-29 11:26N 34°37' E 135°26'0 0.0
2016-Jan-29 10:32N 34°37' E 135°26'0 0.0
2016-Jan-29 09:32N 34°37' E 135°26'0 0.0
2016-Jan-29 08:32N 34°37' E 135°26'0 0.0
2016-Jan-29 07:26N 34°37' E 135°26'0 0.0
2016-Jan-29 06:32N 34°37' E 135°26'0 0.0
2016-Jan-29 05:20N 34°37' E 135°26'0 0.0
2016-Jan-29 04:26N 34°37' E 135°26'0 0.0
2016-Jan-29 03:32N 34°37' E 135°26'0 0.0
2016-Jan-29 02:26N 34°37' E 135°26'0 0.0
2016-Jan-29 01:32N 34°37' E 135°26'0 0.0
2016-Jan-29 00:26N 34°37' E 135°26'0 0.0
2016-Jan-28 23:32N 34°37' E 135°26'0 0.0
2016-Jan-28 22:32N 34°37' E 135°26'0 0.0
2016-Jan-28 21:32N 34°37' E 135°26'6 6.1
2016-Jan-28 20:33N 34°36' E 135°19'1818.1
2016-Jan-28 19:33N 34°36' E 134°57'2 0.1
2016-Jan-27 14:33N 34°36' E 134°55'1919.5
2016-Jan-27 13:33N 34°37' E 135°18'6 6.1
2016-Jan-27 12:31N 34°37' E 135°26'0 0.0
2016-Jan-27 11:31N 34°37' E 135°26'0 0.0
2016-Jan-27 10:31N 34°37' E 135°26'0 0.0
2016-Jan-27 09:31N 34°37' E 135°26'0 0.0
2016-Jan-27 08:19N 34°37' E 135°26'0 0.0
2016-Jan-27 07:31N 34°37' E 135°26'0 0.0
2016-Jan-27 06:31N 34°37' E 135°26'0 0.0
2016-Jan-27 05:31N 34°37' E 135°26'0 0.0
2016-Jan-27 04:19N 34°37' E 135°26'0 0.0
2016-Jan-27 03:19N 34°37' E 135°26'0 0.0
2016-Jan-27 02:25N 34°37' E 135°26'0 0.0
2016-Jan-27 01:31N 34°37' E 135°26'0 0.0
2016-Jan-27 00:31N 34°37' E 135°26'0 0.0
2016-Jan-26 23:31N 34°37' E 135°26'0 0.0
2016-Jan-26 22:25N 34°37' E 135°26'0 0.0
2016-Jan-26 21:25N 34°37' E 135°26'5 5.7
2016-Jan-26 20:33N 34°36' E 135°20'1716.6
2016-Jan-26 19:33N 34°37' E 134°60'14 0.5
2016-Jan-25 15:03N 34°33' E 134°44'1019.8
2016-Jan-25 14:34N 34°36' E 134°55'1919.2
2016-Jan-25 13:34N 34°36' E 135°19'6 5.9
2016-Jan-25 12:32N 34°37' E 135°26'0 0.0
2016-Jan-25 11:32N 34°37' E 135°26'0 0.0
2016-Jan-25 09:26N 34°37' E 135°26'0 0.0
2016-Jan-25 08:32N 34°37' E 135°26'0 0.0
2016-Jan-25 07:26N 34°37' E 135°26'0 0.0
2016-Jan-25 06:26N 34°37' E 135°26'0 0.0
2016-Jan-25 05:08N 34°37' E 135°26'0 0.0
2016-Jan-25 04:32N 34°37' E 135°26'0 0.0
2016-Jan-25 03:32N 34°37' E 135°26'0 0.0
2016-Jan-25 02:32N 34°37' E 135°26'0 0.0
2016-Jan-25 01:14N 34°37' E 135°26'0 0.0
2016-Jan-25 00:32N 34°37' E 135°26'0 0.0
2016-Jan-24 23:32N 34°37' E 135°26'0 0.0
2016-Jan-24 21:20N 34°37' E 135°26'5 6.3
2016-Jan-24 20:33N 34°36' E 135°20'1717.0
2016-Jan-24 19:33N 34°37' E 134°59'2 0.1
2016-Jan-23 14:33N 34°37' E 134°57'1818.2
2016-Jan-23 13:33N 34°37' E 135°19'6 5.5
2016-Jan-23 12:28N 34°37' E 135°26'0 0.0
2016-Jan-23 11:28N 34°37' E 135°26'0 0.0
2016-Jan-23 10:04N 34°37' E 135°26'0 0.0
2016-Jan-23 09:22N 34°37' E 135°26'0 0.0
2016-Jan-23 08:04N 34°37' E 135°26'0 0.0
2016-Jan-23 07:22N 34°37' E 135°26'0 0.0
2016-Jan-23 06:22N 34°37' E 135°26'0 0.0
2016-Jan-23 05:28N 34°37' E 135°26'0 0.0
2016-Jan-23 04:22N 34°37' E 135°26'0 0.0
2016-Jan-23 03:22N 34°37' E 135°26'0 0.0
2016-Jan-23 02:28N 34°37' E 135°26'0 0.0
2016-Jan-23 01:22N 34°37' E 135°26'0 0.0
2016-Jan-23 00:28N 34°37' E 135°26'0 0.0
2016-Jan-22 23:12N 34°37' E 135°26'0 0.0
2016-Jan-22 22:30N 34°37' E 135°26'0 0.0
2016-Jan-22 21:24N 34°37' E 135°26'5 5.7
2016-Jan-22 20:34N 34°36' E 135°20'1717.1
2016-Jan-22 19:33N 34°37' E 134°59'  
Track history (hours):
 
Tides and Currents Weather Stations Pressure Air Temp Water Temp Dewpoint Dewpoint Depression Visibility Wind Speed Wind Dir Waves Ship Positions

Orenge 7

Last reported at 2016-Jan-31 14:34 UTC. Time now 2016-Feb-06 00:16 UTC.
Position N 34°37' E 134°56'.

Length 163 m; draft 4.9 m.

Type: Passenger vessel. MMSI: 431500186.

Date/timePositionNaut miles runAvg speedWind from/ knotsBaromVisibWave heightAir tempDewpointWater temp
2016-Jan-31 14:34N 34°37' E 134°56'1818.2
2016-Jan-31 13:33N 34°36' E 135°19'6 5.1
2016-Jan-31 12:22N 34°37' E 135°26'0 0.0
2016-Jan-31 11:28N 34°37' E 135°26'0 0.0
2016-Jan-31 10:28N 34°37' E 135°26'0 0.0
2016-Jan-31 09:28N 34°37' E 135°26'0 0.0
2016-Jan-31 08:28N 34°37' E 135°26'0 0.0
2016-Jan-31 07:28N 34°37' E 135°26'0 0.0
2016-Jan-31 06:28N 34°37' E 135°26'0 0.0
2016-Jan-31 05:28N 34°37' E 135°26'0 0.0
2016-Jan-31 04:28N 34°37' E 135°26'0 0.0
2016-Jan-31 03:28N 34°37' E 135°26'0 0.0
2016-Jan-31 02:28N 34°37' E 135°26'0 0.0
2016-Jan-31 01:28N 34°37' E 135°26'0 0.0
2016-Jan-31 00:28N 34°37' E 135°26'0 0.0
2016-Jan-30 23:20N 34°37' E 135°26'0 0.0
2016-Jan-30 22:26N 34°37' E 135°26'0 0.0
2016-Jan-30 21:32N 34°37' E 135°26'5 5.4
2016-Jan-30 20:33N 34°36' E 135°20'1918.6
2016-Jan-30 19:33N 34°36' E 134°57'2 0.1
2016-Jan-29 14:33N 34°36' E 134°55'1919.1
2016-Jan-29 13:34N 34°37' E 135°18'6 5.3
2016-Jan-29 12:20N 34°37' E 135°26'0 0.0
2016-Jan-29 11:26N 34°37' E 135°26'0 0.0
2016-Jan-29 10:32N 34°37' E 135°26'0 0.0
2016-Jan-29 09:32N 34°37' E 135°26'0 0.0
2016-Jan-29 08:32N 34°37' E 135°26'0 0.0
2016-Jan-29 07:26N 34°37' E 135°26'0 0.0
2016-Jan-29 06:32N 34°37' E 135°26'0 0.0
2016-Jan-29 05:20N 34°37' E 135°26'0 0.0
2016-Jan-29 04:26N 34°37' E 135°26'0 0.0
2016-Jan-29 03:32N 34°37' E 135°26'0 0.0
2016-Jan-29 02:26N 34°37' E 135°26'0 0.0
2016-Jan-29 01:32N 34°37' E 135°26'0 0.0
2016-Jan-29 00:26N 34°37' E 135°26'0 0.0
2016-Jan-28 23:32N 34°37' E 135°26'0 0.0
2016-Jan-28 22:32N 34°37' E 135°26'0 0.0
2016-Jan-28 21:32N 34°37' E 135°26'6 6.1
2016-Jan-28 20:33N 34°36' E 135°19'1818.1
2016-Jan-28 19:33N 34°36' E 134°57'2 0.1
2016-Jan-27 14:33N 34°36' E 134°55'1919.5
2016-Jan-27 13:33N 34°37' E 135°18'6 6.1
2016-Jan-27 12:31N 34°37' E 135°26'0 0.0
2016-Jan-27 11:31N 34°37' E 135°26'0 0.0
2016-Jan-27 10:31N 34°37' E 135°26'0 0.0
2016-Jan-27 09:31N 34°37' E 135°26'0 0.0
2016-Jan-27 08:19N 34°37' E 135°26'0 0.0
2016-Jan-27 07:31N 34°37' E 135°26'0 0.0
2016-Jan-27 06:31N 34°37' E 135°26'0 0.0
2016-Jan-27 05:31N 34°37' E 135°26'0 0.0
2016-Jan-27 04:19N 34°37' E 135°26'0 0.0
2016-Jan-27 03:19N 34°37' E 135°26'0 0.0
2016-Jan-27 02:25N 34°37' E 135°26'0 0.0
2016-Jan-27 01:31N 34°37' E 135°26'0 0.0
2016-Jan-27 00:31N 34°37' E 135°26'0 0.0
2016-Jan-26 23:31N 34°37' E 135°26'0 0.0
2016-Jan-26 22:25N 34°37' E 135°26'0 0.0
2016-Jan-26 21:25N 34°37' E 135°26'5 5.7
2016-Jan-26 20:33N 34°36' E 135°20'1716.6
2016-Jan-26 19:33N 34°37' E 134°60'14 0.5
2016-Jan-25 15:03N 34°33' E 134°44'1019.8
2016-Jan-25 14:34N 34°36' E 134°55'1919.2
2016-Jan-25 13:34N 34°36' E 135°19'6 5.9
2016-Jan-25 12:32N 34°37' E 135°26'0 0.0
2016-Jan-25 11:32N 34°37' E 135°26'0 0.0
2016-Jan-25 09:26N 34°37' E 135°26'0 0.0
2016-Jan-25 08:32N 34°37' E 135°26'0 0.0
2016-Jan-25 07:26N 34°37' E 135°26'0 0.0
2016-Jan-25 06:26N 34°37' E 135°26'0 0.0
2016-Jan-25 05:08N 34°37' E 135°26'0 0.0
2016-Jan-25 04:32N 34°37' E 135°26'0 0.0
2016-Jan-25 03:32N 34°37' E 135°26'0 0.0
2016-Jan-25 02:32N 34°37' E 135°26'0 0.0
2016-Jan-25 01:14N 34°37' E 135°26'0 0.0
2016-Jan-25 00:32N 34°37' E 135°26'0 0.0
2016-Jan-24 23:32N 34°37' E 135°26'0 0.0
2016-Jan-24 21:20N 34°37' E 135°26'5 6.3
2016-Jan-24 20:33N 34°36' E 135°20'1717.0
2016-Jan-24 19:33N 34°37' E 134°59'2 0.1
2016-Jan-23 14:33N 34°37' E 134°57'1818.2
2016-Jan-23 13:33N 34°37' E 135°19'6 5.5
2016-Jan-23 12:28N 34°37' E 135°26'0 0.0
2016-Jan-23 11:28N 34°37' E 135°26'0 0.0
2016-Jan-23 10:04N 34°37' E 135°26'0 0.0
2016-Jan-23 09:22N 34°37' E 135°26'0 0.0
2016-Jan-23 08:04N 34°37' E 135°26'0 0.0
2016-Jan-23 07:22N 34°37' E 135°26'0 0.0
2016-Jan-23 06:22N 34°37' E 135°26'0 0.0
2016-Jan-23 05:28N 34°37' E 135°26'0 0.0
2016-Jan-23 04:22N 34°37' E 135°26'0 0.0
2016-Jan-23 03:22N 34°37' E 135°26'0 0.0
2016-Jan-23 02:28N 34°37' E 135°26'0 0.0
2016-Jan-23 01:22N 34°37' E 135°26'0 0.0
2016-Jan-23 00:28N 34°37' E 135°26'0 0.0
2016-Jan-22 23:12N 34°37' E 135°26'0 0.0
2016-Jan-22 22:30N 34°37' E 135°26'0 0.0
2016-Jan-22 21:24N 34°37' E 135°26'5 5.7
2016-Jan-22 20:34N 34°36' E 135°20'1717.1
2016-Jan-22 19:33N 34°37' E 134°59'  

Dump ship's entire track history